createdAt,value
2019-03-11T00:01:39.547Z,92884.78
2019-03-11T00:04:13.646Z,92906.22
2019-03-11T00:06:47.327Z,92918.82
2019-03-11T00:09:20.287Z,92921.42
2019-03-11T00:11:53.228Z,92929.61
2019-03-11T00:14:26.127Z,92933.28
2019-03-11T00:16:59.627Z,92934.08
2019-03-11T00:19:32.507Z,92943.89
2019-03-11T00:22:05.428Z,92939.38
2019-03-11T00:24:38.468Z,92943.37
2019-03-11T00:27:11.267Z,92952.26
2019-03-11T00:29:44.767Z,92936.16
2019-03-11T00:32:18.308Z,92952.39
2019-03-11T00:34:51.427Z,92958.08
2019-03-11T00:37:24.327Z,92969.71
2019-03-11T00:39:57.648Z,92949.62
2019-03-11T00:42:30.755Z,92935.97
2019-03-11T00:45:03.529Z,92966.09
2019-03-11T00:47:40.527Z,92946.08
2019-03-11T00:50:13.494Z,92952.17
2019-03-11T00:52:46.371Z,92952.94
2019-03-11T00:55:19.388Z,92927.06
2019-03-11T00:57:52.288Z,92934.73
2019-03-11T01:00:25.247Z,92932.34
2019-03-11T01:02:58.190Z,92945.05
2019-03-11T01:05:31.307Z,92948.20
2019-03-11T01:08:04.167Z,92960.87
2019-03-11T01:10:37.168Z,92923.90
2019-03-11T01:13:09.882Z,92938.44
2019-03-11T01:15:43.207Z,92948.48
2019-03-11T01:18:16.069Z,92941.63
2019-03-11T01:20:48.990Z,92941.61
2019-03-11T01:23:22.096Z,92944.52
2019-03-11T01:25:55.489Z,92942.41
2019-03-11T01:28:28.347Z,92960.09
2019-03-11T01:31:01.187Z,92972.47
2019-03-11T01:33:34.151Z,92962.67
2019-03-11T01:36:07.091Z,92959.27
2019-03-11T01:38:40.178Z,92953.72
2019-03-11T01:41:13.252Z,92961.06
2019-03-11T01:43:46.387Z,92960.81
2019-03-11T01:46:19.387Z,92981.14
2019-03-11T01:48:52.347Z,92991.66
2019-03-11T01:51:25.669Z,93008.82
2019-03-11T01:53:58.490Z,93013.06
2019-03-11T01:56:31.362Z,93035.91
2019-03-11T01:59:04.136Z,93027.15
2019-03-11T02:01:56.029Z,93059.56
2019-03-11T02:04:28.990Z,93051.09
2019-03-11T02:07:02.173Z,93050.81
2019-03-11T02:09:36.031Z,93030.31
2019-03-11T02:12:09.949Z,93040.21
2019-03-11T02:14:42.809Z,93070.21
2019-03-11T02:17:15.649Z,93034.66
2019-03-11T02:19:48.442Z,93041.16
2019-03-11T02:22:21.389Z,93035.91
2019-03-11T02:24:54.213Z,93033.38
2019-03-11T02:27:27.467Z,93028.73
2019-03-11T02:30:00.452Z,93035.83
2019-03-11T02:32:34.209Z,93033.91
2019-03-11T02:35:07.045Z,93045.72
2019-03-11T02:37:40.388Z,93057.02
2019-03-11T02:40:13.049Z,93056.20
2019-03-11T02:42:46.449Z,93058.12
2019-03-11T02:45:20.226Z,93076.61
2019-03-11T02:47:53.040Z,93071.59
2019-03-11T02:50:25.931Z,93067.41
2019-03-11T02:52:59.332Z,93086.28
2019-03-11T02:55:32.828Z,93068.61
2019-03-11T02:58:06.291Z,93084.80
2019-03-11T03:00:39.023Z,93099.01
2019-03-11T03:03:13.676Z,93090.65
2019-03-11T03:05:50.776Z,93101.38
2019-03-11T03:08:23.691Z,93099.74
2019-03-11T03:10:56.600Z,93110.48
2019-03-11T03:13:29.851Z,93130.18
2019-03-11T03:16:02.566Z,93127.99
2019-03-11T03:18:35.512Z,93140.42
2019-03-11T03:21:08.330Z,93149.28
2019-03-11T03:23:42.060Z,93155.81
2019-03-11T03:26:14.833Z,93151.50
2019-03-11T03:28:47.834Z,93160.09
2019-03-11T03:31:20.698Z,93167.30
2019-03-11T03:33:53.674Z,93178.81
2019-03-11T03:36:27.509Z,93185.42
2019-03-11T03:39:00.509Z,93173.42
2019-03-11T03:41:33.267Z,93171.67
2019-03-11T03:44:06.223Z,93191.55
2019-03-11T03:46:39.448Z,93196.41
2019-03-11T03:49:12.394Z,93217.17
2019-03-11T03:51:45.328Z,93201.20
2019-03-11T03:54:18.208Z,93213.10
2019-03-11T03:56:54.106Z,93204.13
2019-03-11T03:59:25.880Z,93227.09
2019-03-11T04:01:58.668Z,93210.34
2019-03-11T04:04:31.630Z,93234.03
2019-03-11T04:07:04.387Z,93227.99
2019-03-11T04:09:37.351Z,93221.99
2019-03-11T04:12:10.717Z,93247.98
2019-03-11T04:14:43.730Z,93228.80
2019-03-11T04:17:16.468Z,93235.45
2019-03-11T04:19:49.670Z,93235.83
2019-03-11T04:22:22.688Z,93242.47
2019-03-11T04:24:55.788Z,93233.66
2019-03-11T04:27:28.669Z,93241.28
2019-03-11T04:30:01.674Z,93253.92
2019-03-11T04:32:34.387Z,93245.37
2019-03-11T04:35:07.848Z,93233.62
2019-03-11T04:37:40.687Z,93249.58
2019-03-11T04:40:13.747Z,93257.94
2019-03-11T04:42:47.088Z,93251.88
2019-03-11T04:45:20.367Z,93277.90
2019-03-11T04:47:53.347Z,93255.91
2019-03-11T04:50:26.587Z,93258.27
2019-03-11T04:52:59.628Z,93250.45
2019-03-11T04:55:33.549Z,93258.52
2019-03-11T04:58:07.028Z,93259.66
2019-03-11T05:00:40.067Z,93292.83
2019-03-11T05:03:13.308Z,93305.94
2019-03-11T05:05:46.247Z,93289.84
2019-03-11T05:08:19.487Z,93291.07
2019-03-11T05:10:52.387Z,93289.00
2019-03-11T05:13:25.229Z,93270.83
2019-03-11T05:15:58.167Z,93288.67
2019-03-11T05:18:31.008Z,93299.98
2019-03-11T05:21:03.748Z,93283.77
2019-03-11T05:23:37.410Z,93286.59
2019-03-11T05:26:10.661Z,93304.95
2019-03-11T05:28:43.831Z,93291.20
2019-03-11T05:31:17.108Z,93301.25
2019-03-11T05:33:50.467Z,93304.94
2019-03-11T05:36:23.268Z,93300.25
2019-03-11T05:38:56.178Z,93304.32
2019-03-11T05:41:29.140Z,93289.75
2019-03-11T05:44:01.953Z,93298.92
2019-03-11T05:46:34.869Z,93304.36
2019-03-11T05:49:07.908Z,93308.05
2019-03-11T05:51:42.574Z,93287.04
2019-03-11T05:54:15.488Z,93282.42
2019-03-11T05:56:48.268Z,93299.80
2019-03-11T05:59:21.086Z,93296.27
2019-03-11T06:01:54.379Z,93286.96
2019-03-11T06:04:27.712Z,93306.58
2019-03-11T06:07:00.839Z,93306.77
2019-03-11T06:09:33.642Z,93311.73
2019-03-11T06:12:06.490Z,93317.00
2019-03-11T06:14:39.628Z,93316.63
2019-03-11T06:17:12.667Z,93309.88
2019-03-11T06:19:46.127Z,93310.13
2019-03-11T06:22:20.828Z,93316.78
2019-03-11T06:24:53.668Z,93335.40
2019-03-11T06:27:27.087Z,93329.23
2019-03-11T06:29:59.927Z,93333.25
2019-03-11T06:32:32.770Z,93344.34
2019-03-11T06:35:07.611Z,93341.39
2019-03-11T06:37:40.572Z,93338.36
2019-03-11T06:40:13.414Z,93339.25
2019-03-11T06:42:46.569Z,93342.73
2019-03-11T06:45:19.367Z,93346.13
2019-03-11T06:47:52.268Z,93355.84
2019-03-11T06:50:25.136Z,93359.72
2019-03-11T06:52:58.447Z,93350.28
2019-03-11T06:55:31.548Z,93345.89
2019-03-11T06:58:05.128Z,93352.33
2019-03-11T07:00:37.888Z,93349.59
2019-03-11T07:03:10.935Z,93372.05
2019-03-11T07:05:43.889Z,93375.06
2019-03-11T07:08:16.868Z,93364.38
2019-03-11T07:10:49.647Z,93373.52
2019-03-11T07:13:22.587Z,93368.90
2019-03-11T07:15:55.347Z,93368.04
2019-03-11T07:18:28.507Z,93373.23
2019-03-11T07:21:01.547Z,93368.11
2019-03-11T07:23:34.488Z,93369.75
2019-03-11T07:26:07.428Z,93377.21
2019-03-11T07:28:40.291Z,93351.17
2019-03-11T07:31:13.107Z,93353.81
2019-03-11T07:33:46.088Z,93338.50
2019-03-11T07:36:19.027Z,93315.39
2019-03-11T07:38:52.448Z,93307.48
2019-03-11T07:41:25.327Z,93278.73
2019-03-11T07:43:58.648Z,93267.08
2019-03-11T07:46:31.728Z,93273.88
2019-03-11T07:49:04.668Z,93257.94
2019-03-11T07:51:38.527Z,93254.16
2019-03-11T07:54:11.556Z,93251.95
2019-03-11T07:56:44.867Z,93248.77
2019-03-11T07:59:18.047Z,93274.64
2019-03-11T08:01:51.048Z,93257.84
2019-03-11T08:04:23.968Z,93235.73
2019-03-11T08:06:56.987Z,93229.98
2019-03-11T08:09:37.883Z,93231.70
2019-03-11T08:12:04.807Z,93232.62
2019-03-11T08:14:38.455Z,93227.05
2019-03-11T08:17:14.527Z,93225.73
2019-03-11T08:19:47.451Z,93212.48
2019-03-11T08:22:21.447Z,93223.80
2019-03-11T08:24:54.668Z,93240.25
2019-03-11T08:27:27.888Z,93220.55
2019-03-11T08:30:01.128Z,93213.33
2019-03-11T08:32:34.507Z,93218.65
2019-03-11T08:35:07.988Z,93221.08
2019-03-11T08:37:41.107Z,93180.43
2019-03-11T08:40:13.928Z,93164.00
2019-03-11T08:42:47.189Z,93154.69
2019-03-11T08:45:20.089Z,93161.75
2019-03-11T08:47:53.027Z,93129.23
2019-03-11T08:50:26.147Z,93169.38
2019-03-11T08:52:58.909Z,93167.14
2019-03-11T08:55:31.850Z,93174.23
2019-03-11T08:58:05.188Z,93173.81
2019-03-11T09:00:38.047Z,93171.44
2019-03-11T09:03:12.408Z,93157.73
2019-03-11T09:05:45.410Z,93166.38
2019-03-11T09:08:18.908Z,93145.02
2019-03-11T09:10:52.130Z,93146.64
2019-03-11T09:13:24.929Z,93139.20
2019-03-11T09:15:58.128Z,93089.66
2019-03-11T09:18:31.307Z,93052.93
2019-03-11T09:21:05.079Z,93024.88
2019-03-11T09:23:38.967Z,93005.86
2019-03-11T09:26:11.967Z,92987.41
2019-03-11T09:28:45.508Z,92949.17
2019-03-11T09:31:18.388Z,92947.62
2019-03-11T09:33:51.328Z,92942.63
2019-03-11T09:36:26.135Z,92968.00
2019-03-11T09:38:59.331Z,93007.47
2019-03-11T09:41:32.627Z,93028.61
2019-03-11T09:44:05.887Z,93015.67
2019-03-11T09:46:39.547Z,93052.95
2019-03-11T09:49:12.507Z,93044.22
2019-03-11T09:51:45.488Z,93032.34
2019-03-11T09:54:18.607Z,93060.87
2019-03-11T09:56:51.528Z,93060.78
2019-03-11T09:59:24.446Z,93059.53
2019-03-11T10:01:57.887Z,93064.55
2019-03-11T10:04:31.038Z,93054.28
2019-03-11T10:07:03.808Z,93050.06
2019-03-11T10:09:37.449Z,93035.28
2019-03-11T10:12:10.350Z,93028.40
2019-03-11T10:14:43.227Z,93018.13
2019-03-11T10:17:16.128Z,93005.67
2019-03-11T10:19:49.028Z,92999.57
2019-03-11T10:22:21.908Z,92996.36
2019-03-11T10:24:55.024Z,92991.26
2019-03-11T10:27:27.996Z,93001.95
2019-03-11T10:30:01.088Z,93011.72
2019-03-11T10:32:33.987Z,93006.30
2019-03-11T10:35:06.916Z,92987.19
2019-03-11T10:37:40.235Z,93005.60
2019-03-11T10:40:13.089Z,93018.09
2019-03-11T10:42:47.707Z,93006.14
2019-03-11T10:45:30.553Z,93004.02
2019-03-11T10:47:55.246Z,93001.14
2019-03-11T10:50:28.067Z,92991.56
2019-03-11T10:53:01.416Z,92965.54
2019-03-11T10:55:34.203Z,92988.16
2019-03-11T10:58:07.150Z,92974.60
2019-03-11T11:00:40.550Z,92969.42
2019-03-11T11:03:13.630Z,92949.02
2019-03-11T11:05:46.511Z,92945.50
2019-03-11T11:08:19.331Z,92933.09
2019-03-11T11:10:52.157Z,92929.17
2019-03-11T11:13:25.016Z,92927.91
2019-03-11T11:15:58.127Z,92914.00
2019-03-11T11:18:31.028Z,92900.84
2019-03-11T11:21:03.829Z,92875.84
2019-03-11T11:23:37.173Z,92887.52
2019-03-11T11:26:10.577Z,92859.29
2019-03-11T11:28:43.347Z,92920.42
2019-03-11T11:31:17.028Z,92876.37
2019-03-11T11:33:49.828Z,92881.38
2019-03-11T11:36:23.050Z,92884.60
2019-03-11T11:38:55.888Z,92875.91
2019-03-11T11:41:28.746Z,92852.06
2019-03-11T11:44:01.974Z,92863.73
2019-03-11T11:46:34.847Z,92880.23
2019-03-11T11:49:07.747Z,92868.59
2019-03-11T11:51:40.547Z,92880.91
2019-03-11T11:54:13.488Z,92883.15
2019-03-11T11:56:46.329Z,92904.02
2019-03-11T11:59:19.167Z,92913.31
2019-03-11T12:02:02.953Z,92919.63
2019-03-11T12:04:26.588Z,92932.75
2019-03-11T12:06:59.427Z,92952.88
2019-03-11T12:09:32.367Z,92961.34
2019-03-11T12:12:06.256Z,92982.33
2019-03-11T12:14:39.547Z,92956.48
2019-03-11T12:17:12.367Z,93021.48
2019-03-11T12:19:45.827Z,93051.86
2019-03-11T12:22:18.608Z,93066.42
2019-03-11T12:24:51.571Z,93076.33
2019-03-11T12:27:24.467Z,93072.98
2019-03-11T12:29:57.312Z,93115.09
2019-03-11T12:32:30.708Z,93094.41
2019-03-11T12:35:03.560Z,93094.56
2019-03-11T12:37:36.409Z,93119.19
2019-03-11T12:40:10.197Z,93113.99
2019-03-11T12:42:43.030Z,93125.34
2019-03-11T12:45:16.371Z,93127.02
2019-03-11T12:47:49.211Z,93135.98
2019-03-11T12:50:22.113Z,93109.55
2019-03-11T12:52:54.910Z,93127.66
2019-03-11T12:55:27.783Z,93115.75
2019-03-11T12:58:00.651Z,93114.22
2019-03-11T13:00:33.550Z,93110.28
2019-03-11T13:03:06.447Z,93103.34
2019-03-11T13:05:39.559Z,93111.20
2019-03-11T13:08:12.847Z,93108.04
2019-03-11T13:10:45.588Z,93120.36
2019-03-11T13:13:19.232Z,93094.22
2019-03-11T13:15:52.529Z,93089.05
2019-03-11T13:18:25.935Z,93067.09
2019-03-11T13:20:58.911Z,93066.72
2019-03-11T13:23:31.830Z,93053.42
2019-03-11T13:26:04.678Z,93051.27
2019-03-11T13:28:38.067Z,93059.97
2019-03-11T13:31:10.987Z,93055.82
2019-03-11T13:33:44.030Z,93059.26
2019-03-11T13:36:16.929Z,93050.11
2019-03-11T13:38:50.027Z,93061.19
2019-03-11T13:41:23.346Z,93047.21
2019-03-11T13:43:56.188Z,93052.20
2019-03-11T13:46:28.998Z,93060.55
2019-03-11T13:49:02.197Z,93051.72
2019-03-11T13:51:35.907Z,93067.30
2019-03-11T13:54:08.690Z,93064.36
2019-03-11T13:56:42.324Z,93056.52
2019-03-11T13:59:15.226Z,93050.86
2019-03-11T14:01:48.269Z,93050.52
2019-03-11T14:04:21.090Z,93062.34
2019-03-11T14:06:53.987Z,93065.60
2019-03-11T14:09:27.427Z,93078.91
2019-03-11T14:12:00.589Z,93082.06
2019-03-11T14:14:33.349Z,93075.78
2019-03-11T14:17:07.135Z,93083.92
2019-03-11T14:19:39.890Z,93076.05
2019-03-11T14:22:12.911Z,93081.79
2019-03-11T14:24:46.029Z,93086.13
2019-03-11T14:27:19.109Z,93094.33
2019-03-11T14:29:52.369Z,93100.61
2019-03-11T14:32:25.832Z,93104.14
2019-03-11T14:34:59.509Z,93102.07
2019-03-11T14:37:32.469Z,93111.91
2019-03-11T14:40:05.347Z,93124.25
2019-03-11T14:42:38.311Z,93110.32
2019-03-11T14:45:11.169Z,93107.45
2019-03-11T14:47:44.437Z,93113.25
2019-03-11T14:50:17.270Z,93123.23
2019-03-11T14:52:50.272Z,93130.02
2019-03-11T14:55:23.151Z,93135.91
2019-03-11T14:57:58.048Z,93134.84
2019-03-11T15:00:30.927Z,93150.90
2019-03-11T15:03:03.748Z,93158.51
2019-03-11T15:05:37.027Z,93155.34
2019-03-11T15:08:12.546Z,93155.77
2019-03-11T15:10:44.347Z,93159.49
2019-03-11T15:13:17.427Z,93159.63
2019-03-11T15:15:50.208Z,93160.25
2019-03-11T15:18:23.266Z,93161.88
2019-03-11T15:20:56.867Z,93164.77
2019-03-11T15:23:29.889Z,93159.04
2019-03-11T15:26:02.652Z,93157.98
2019-03-11T15:28:35.607Z,93167.19
2019-03-11T15:31:10.732Z,93176.09
2019-03-11T15:33:43.227Z,93176.77
2019-03-11T15:36:16.208Z,93173.70
2019-03-11T15:38:49.867Z,93167.36
2019-03-11T15:41:22.827Z,93175.95
2019-03-11T15:43:56.048Z,93176.45
2019-03-11T15:46:38.958Z,93184.34
2019-03-11T15:49:03.628Z,93186.08
2019-03-11T15:51:37.162Z,93194.45
2019-03-11T15:54:10.687Z,93197.16
2019-03-11T15:56:43.568Z,93205.31
2019-03-11T15:59:16.867Z,93216.87
2019-03-11T16:01:49.847Z,93231.93
2019-03-11T16:04:23.148Z,93231.20
2019-03-11T16:06:56.847Z,93237.58
2019-03-11T16:09:29.687Z,93253.84
2019-03-11T16:12:02.425Z,93249.83
2019-03-11T16:14:35.288Z,93246.03
2019-03-11T16:17:08.253Z,93249.92
2019-03-11T16:19:41.528Z,93245.27
2019-03-11T16:22:23.376Z,93260.85
2019-03-11T16:24:52.267Z,93265.98
2019-03-11T16:27:25.269Z,93273.45
2019-03-11T16:29:59.007Z,93261.09
2019-03-11T16:32:31.973Z,93251.23
2019-03-11T16:35:04.867Z,93254.03
2019-03-11T16:37:37.827Z,93238.09
2019-03-11T16:40:11.008Z,93252.91
2019-03-11T16:42:44.010Z,93254.91
2019-03-11T16:45:18.508Z,93242.98
2019-03-11T16:47:51.388Z,93246.53
2019-03-11T16:50:24.167Z,93271.83
2019-03-11T16:52:58.831Z,93265.55
2019-03-11T16:55:49.216Z,93267.71
2019-03-11T16:58:22.488Z,93281.56
2019-03-11T17:00:57.187Z,93295.95
2019-03-11T17:03:32.790Z,93312.16
2019-03-11T17:06:05.947Z,93318.30
2019-03-11T17:08:38.947Z,93329.36
2019-03-11T17:11:12.650Z,93346.87
2019-03-11T17:13:45.388Z,93355.61
2019-03-11T17:16:18.388Z,93354.31
2019-03-11T17:18:51.209Z,93365.94
2019-03-11T17:21:24.669Z,93376.19
2019-03-11T17:23:57.659Z,93382.16
2019-03-11T17:26:31.107Z,93387.61
2019-03-11T17:29:04.331Z,93401.72
2019-03-11T17:31:37.307Z,93406.75
2019-03-11T17:34:10.022Z,93414.75
2019-03-11T17:36:42.828Z,93425.42
2019-03-11T17:39:16.114Z,93426.56
2019-03-11T17:41:49.087Z,93425.67
2019-03-11T17:44:21.976Z,93420.87
2019-03-11T17:46:55.129Z,93426.68
2019-03-11T17:49:28.027Z,93431.81
2019-03-11T17:52:00.827Z,93435.34
2019-03-11T17:54:33.970Z,93439.57
2019-03-11T17:57:06.867Z,93437.54
2019-03-11T17:59:39.809Z,93434.63
2019-03-11T18:02:12.734Z,93431.92
2019-03-11T18:04:45.648Z,93433.70
2019-03-11T18:07:18.469Z,93426.24
2019-03-11T18:09:51.367Z,93414.17
2019-03-11T18:12:24.287Z,93428.75
2019-03-11T18:14:57.374Z,93425.94
2019-03-11T18:17:30.670Z,93430.95
2019-03-11T18:20:03.389Z,93422.56
2019-03-11T18:22:36.350Z,93431.56
2019-03-11T18:25:10.294Z,93433.86
2019-03-11T18:27:43.689Z,93444.05
2019-03-11T18:30:16.418Z,93448.64
2019-03-11T18:32:49.397Z,93451.75
2019-03-11T18:35:23.434Z,93458.45
2019-03-11T18:38:04.160Z,93460.27
2019-03-11T18:40:30.865Z,93472.79
2019-03-11T18:43:03.740Z,93474.95
2019-03-11T18:45:36.498Z,93466.55
2019-03-11T18:48:09.340Z,93493.52
2019-03-11T18:50:43.133Z,93484.67
2019-03-11T18:53:16.039Z,93490.86
2019-03-11T18:55:49.233Z,93487.61
2019-03-11T18:58:22.216Z,93498.31
2019-03-11T19:00:55.409Z,93504.34
2019-03-11T19:03:28.193Z,93498.08
2019-03-11T19:06:01.417Z,93502.29
2019-03-11T19:08:34.280Z,93502.51
2019-03-11T19:11:06.959Z,93496.31
2019-03-11T19:13:40.349Z,93491.59
2019-03-11T19:16:13.605Z,93486.88
2019-03-11T19:18:47.292Z,93480.70
2019-03-11T19:21:20.004Z,93489.09
2019-03-11T19:23:53.175Z,93492.73
2019-03-11T19:26:26.504Z,93495.52
2019-03-11T19:28:59.333Z,93503.94
2019-03-11T19:31:32.396Z,93501.72
2019-03-11T19:34:05.399Z,93502.30
2019-03-11T19:36:38.223Z,93503.69
2019-03-11T19:39:12.854Z,93500.06
2019-03-11T19:41:45.761Z,93505.77
2019-03-11T19:44:18.601Z,93510.70
2019-03-11T19:46:51.924Z,93506.36
2019-03-11T19:49:24.757Z,93506.26
2019-03-11T19:51:57.681Z,93510.98
2019-03-11T19:54:30.531Z,93513.06
2019-03-11T19:57:03.546Z,93503.83
2019-03-11T19:59:38.302Z,93499.38
2019-03-11T20:02:11.184Z,93497.64
2019-03-11T20:04:43.971Z,93499.57
2019-03-11T20:07:17.312Z,93505.20
2019-03-11T20:09:50.305Z,93507.64
2019-03-11T20:12:23.050Z,93515.59
2019-03-11T20:14:56.178Z,93520.83
2019-03-11T20:17:29.068Z,93525.27
2019-03-11T20:20:02.354Z,93521.46
2019-03-11T20:22:35.213Z,93529.77
2019-03-11T20:25:08.283Z,93537.28
2019-03-11T20:27:41.240Z,93527.02
2019-03-11T20:30:33.037Z,93519.23
2019-03-11T20:33:05.989Z,93518.63
2019-03-11T20:35:38.935Z,93528.22
2019-03-11T20:38:12.049Z,93543.91
2019-03-11T20:40:44.957Z,93545.73
2019-03-11T20:43:18.548Z,93553.91
2019-03-11T20:45:51.526Z,93551.08
2019-03-11T20:48:24.351Z,93536.68
2019-03-11T20:50:57.290Z,93539.94
2019-03-11T20:53:30.131Z,93545.45
2019-03-11T20:56:02.914Z,93552.83
2019-03-11T20:58:36.211Z,93545.05
2019-03-11T21:01:09.138Z,93570.53
2019-03-11T21:03:42.428Z,93559.36
2019-03-11T21:06:15.974Z,93564.30
2019-03-11T21:08:48.922Z,93558.34
2019-03-11T21:11:22.584Z,93559.41
2019-03-11T21:13:55.545Z,93563.34
2019-03-11T21:16:28.591Z,93570.09
2019-03-11T21:19:01.522Z,93571.40
2019-03-11T21:21:34.468Z,93565.02
2019-03-11T21:24:07.401Z,93563.86
2019-03-11T21:26:40.480Z,93570.78
2019-03-11T21:29:13.875Z,93567.73
2019-03-11T21:31:46.827Z,93566.77
2019-03-11T21:34:19.740Z,93575.55
2019-03-11T21:36:53.222Z,93568.06
2019-03-11T21:39:26.461Z,93573.19
2019-03-11T21:41:59.587Z,93580.69
2019-03-11T21:44:32.585Z,93570.32
2019-03-11T21:47:05.431Z,93569.30
2019-03-11T21:49:38.758Z,93562.03
2019-03-11T21:52:13.271Z,93550.37
2019-03-11T21:54:47.529Z,93556.48
2019-03-11T21:57:20.656Z,93563.73
2019-03-11T21:59:53.599Z,93549.28
2019-03-11T22:02:28.508Z,93561.09
2019-03-11T22:05:01.454Z,93562.23
2019-03-11T22:07:34.407Z,93570.11
2019-03-11T22:10:07.267Z,93572.05
2019-03-11T22:12:40.607Z,93572.05
2019-03-11T22:15:14.349Z,93583.38
2019-03-11T22:17:47.330Z,93589.88
2019-03-11T22:20:20.569Z,93596.11
2019-03-11T22:22:53.889Z,93601.00
2019-03-11T22:25:26.766Z,93610.55
2019-03-11T22:27:59.627Z,93603.28
2019-03-11T22:30:32.727Z,93606.31
2019-03-11T22:33:05.845Z,93612.67
2019-03-11T22:35:39.130Z,93608.13
2019-03-11T22:38:12.587Z,93603.12
2019-03-11T22:40:45.487Z,93605.38
2019-03-11T22:43:18.370Z,93604.38
2019-03-11T22:45:51.267Z,93606.83
2019-03-11T22:48:24.287Z,93596.48
2019-03-11T22:50:57.087Z,93604.70
2019-03-11T22:53:29.967Z,93599.91
2019-03-11T22:56:02.689Z,93595.73
2019-03-11T22:58:35.807Z,93595.02
2019-03-11T23:01:09.127Z,93599.87
2019-03-11T23:03:50.553Z,93596.91
2019-03-11T23:06:16.927Z,93599.67
2019-03-11T23:08:49.789Z,93599.54
2019-03-11T23:11:23.227Z,93596.05
2019-03-11T23:13:57.787Z,93603.64
2019-03-11T23:16:30.927Z,93601.84
2019-03-11T23:19:03.768Z,93596.71
2019-03-11T23:21:36.689Z,93596.13
2019-03-11T23:24:09.608Z,93602.38
2019-03-11T23:26:42.386Z,93603.33
2019-03-11T23:29:15.327Z,93603.23
2019-03-11T23:31:48.567Z,93606.91
2019-03-11T23:34:21.547Z,93604.66
2019-03-11T23:36:55.067Z,93598.05
2019-03-11T23:39:27.888Z,93592.94
2019-03-11T23:42:00.833Z,93593.89
2019-03-11T23:44:33.792Z,93601.66
2019-03-11T23:47:06.949Z,93605.78
2019-03-11T23:49:40.889Z,93608.77
2019-03-11T23:52:13.831Z,93605.65
2019-03-11T23:54:47.669Z,93610.23
2019-03-11T23:57:20.529Z,93616.89
2019-03-11T23:59:55.147Z,93625.67
